Time;durP1;ratioP1;P1;durP2;ratioP2;P2;SDS_P1;SDS_P2;PMS_P1;PMS_P2;Temp;Humidity;BMP_temperature;BMP_pressure;BME280_temperature;BME280_humidity;BME280_pressure;Samples;Min_cycle;Max_cycle;Signal;HPM_P1;HPM_P2
2023/10/29 09:39:18;;;;;;;8.68;5.25;;;14.70;88.60;;;;;;12699483;27;20470;-72
2023/10/29 09:45:25;;;;;;;15.90;5.65;;;14.80;89.60;;;;;;12697675;28;20035;-72
2023/10/29 09:51:27;;;;;;;12.25;4.22;;;14.90;90.50;;;;;;12697642;28;20035;-72
2023/10/29 09:57:30;;;;;;;15.07;5.05;;;15.10;91.30;;;;;;12697293;28;20035;-72
2023/10/29 10:03:32;;;;;;;7.53;4.70;;;15.20;91.70;;;;;;12695894;28;20027;-72
2023/10/29 10:09:52;;;;;;;7.35;4.38;;;15.30;91.90;;;;;;12696872;28;20027;-71
2023/10/29 10:16:06;;;;;;;7.18;4.05;;;15.50;91.90;;;;;;12696431;28;20432;-72
2023/10/29 10:22:07;;;;;;;8.32;4.43;;;15.60;92.00;;;;;;12696277;28;20031;-72
2023/10/29 10:28:09;;;;;;;7.53;3.88;;;15.60;92.00;;;;;;12694613;28;20032;-71
2023/10/29 10:34:17;;;;;;;10.20;4.68;;;15.70;91.90;;;;;;12694760;28;20027;-71
2023/10/29 10:40:26;;;;;;;13.47;4.20;;;15.70;91.90;;;;;;12693986;28;20032;-72
2023/10/29 10:46:33;;;;;;;11.38;5.72;;;15.70;91.80;;;;;;12685223;28;20032;-72
2023/10/29 10:52:35;;;;;;;8.10;4.85;;;15.80;91.80;;;;;;12661066;28;20043;-71
2023/10/29 10:58:39;;;;;;;10.57;5.68;;;15.80;91.80;;;;;;12661519;28;20028;-71
2023/10/29 11:04:42;;;;;;;6.22;4.97;;;15.90;91.70;;;;;;12659434;28;20348;-72
2023/10/29 11:10:46;;;;;;;7.93;4.55;;;16.00;91.60;;;;;;12642093;28;20039;-71
2023/10/29 11:16:56;;;;;;;11.57;5.65;;;15.90;91.50;;;;;;12658856;28;20039;-70
2023/10/29 11:23:07;;;;;;;9.77;5.32;;;16.00;91.60;;;;;;12658476;28;20035;-71
2023/10/29 11:29:08;;;;;;;9.95;4.38;;;16.10;91.50;;;;;;12658146;28;20051;-71
2023/10/29 11:35:21;;;;;;;10.52;4.85;;;16.10;91.40;;;;;;12606629;28;20438;-71
2023/10/29 11:41:38;;;;;;;5.65;4.03;;;16.20;91.30;;;;;;12602799;28;20028;-71
2023/10/29 11:48:05;;;;;;;8.20;4.05;;;16.20;91.20;;;;;;12603631;28;20040;-72
2023/10/29 11:54:07;;;;;;;8.93;4.68;;;16.20;91.10;;;;;;12629230;28;20032;-71
2023/10/29 12:00:10;;;;;;;8.63;4.22;;;16.30;91.20;;;;;;12652133;28;20028;-71
2023/10/29 12:06:12;;;;;;;7.82;2.90;;;16.20;91.10;;;;;;12651510;28;20027;-71
2023/10/29 12:12:14;;;;;;;7.07;3.50;;;16.20;91.00;;;;;;12650296;28;20031;-71
2023/10/29 12:18:23;;;;;;;4.68;3.42;;;16.30;91.00;;;;;;12609607;28;20035;-72
2023/10/29 12:24:24;;;;;;;;;;;16.40;90.90;;;;;;12602558;28;20028;-71
2023/10/29 12:30:47;;;;;;;7.80;4.63;;;16.50;90.70;;;;;;12601251;28;20213;-70
2023/10/29 12:36:53;;;;;;;6.68;3.38;;;16.50;90.60;;;;;;12615544;28;20052;-71
2023/10/29 12:42:55;;;;;;;7.18;3.72;;;16.60;90.60;;;;;;12647061;28;20031;-71
2023/10/29 12:49:01;;;;;;;8.73;3.72;;;16.70;90.50;;;;;;12656302;28;20038;-71
2023/10/29 12:55:07;;;;;;;4.78;3.08;;;16.70;90.40;;;;;;12655853;28;20024;-70
2023/10/29 13:01:09;;;;;;;7.88;3.38;;;16.70;90.40;;;;;;12656216;28;20031;-70
2023/10/29 13:07:11;;;;;;;7.68;3.85;;;16.70;90.20;;;;;;12655309;28;20417;-70
2023/10/29 13:13:15;;;;;;;7.20;3.40;;;16.70;90.20;;;;;;12654329;28;20031;-70
2023/10/29 13:19:17;;;;;;;4.15;3.20;;;16.70;90.20;;;;;;12653279;28;20440;-70
2023/10/29 13:25:19;;;;;;;3.92;2.95;;;16.70;90.20;;;;;;12654380;28;20463;-70
2023/10/29 13:31:20;;;;;;;7.13;3.67;;;16.70;90.10;;;;;;12653676;28;20032;-70
2023/10/29 13:37:22;;;;;;;6.82;3.55;;;16.80;90.00;;;;;;12653198;28;20036;-71
2023/10/29 13:43:24;;;;;;;6.40;3.47;;;16.80;90.00;;;;;;12652740;28;20020;-70
2023/10/29 13:49:27;;;;;;;6.15;3.70;;;16.80;89.90;;;;;;12652543;28;20448;-70
2023/10/29 13:55:29;;;;;;;11.07;4.55;;;16.80;89.80;;;;;;12653492;28;20340;-71
2023/10/29 14:01:31;;;;;;;6.20;3.20;;;16.80;89.70;;;;;;12635334;28;20047;-71
2023/10/29 14:07:33;;;;;;;5.35;2.65;;;16.80;89.60;;;;;;12653251;28;20348;-71
2023/10/29 14:13:35;;;;;;;9.10;3.70;;;16.90;89.70;;;;;;12651991;28;20036;-71
2023/10/29 14:19:37;;;;;;;11.88;3.50;;;16.90;89.60;;;;;;12651789;28;20040;-71
2023/10/29 14:25:38;;;;;;;7.80;3.08;;;16.80;89.60;;;;;;12662255;28;20024;-71
2023/10/29 14:31:40;;;;;;;11.70;2.75;;;16.80;89.60;;;;;;12662791;28;20028;-71
2023/10/29 14:37:42;;;;;;;5.65;3.03;;;16.80;89.70;;;;;;12660662;28;20029;-71
2023/10/29 14:43:44;;;;;;;11.35;3.42;;;16.80;89.60;;;;;;12643854;28;20033;-71
2023/10/29 14:49:46;;;;;;;10.38;3.67;;;16.80;89.60;;;;;;12661427;28;20436;-71
2023/10/29 14:55:48;;;;;;;5.05;3.08;;;16.80;89.60;;;;;;12661007;28;20105;-72
2023/10/29 15:01:50;;;;;;;4.95;3.17;;;16.80;89.60;;;;;;12642881;28;20040;-71
2023/10/29 15:07:54;;;;;;;10.05;3.53;;;16.80;89.50;;;;;;12659370;28;20031;-72
2023/10/29 15:13:55;;;;;;;7.82;3.47;;;16.80;89.60;;;;;;12660175;28;20035;-71
2023/10/29 15:20:01;;;;;;;7.13;3.40;;;16.90;89.60;;;;;;12660019;28;20344;-71
2023/10/29 15:26:04;;;;;;;5.57;3.22;;;16.80;89.50;;;;;;12658641;28;20054;-71
2023/10/29 15:32:06;;;;;;;6.43;3.67;;;16.80;89.50;;;;;;12658205;28;20039;-71
2023/10/29 15:38:09;;;;;;;6.07;3.30;;;16.80;89.60;;;;;;12657708;28;20024;-72
2023/10/29 15:44:11;;;;;;;6.07;3.83;;;16.70;89.60;;;;;;12657563;28;20020;-71
2023/10/29 15:50:13;;;;;;;5.55;2.78;;;16.70;89.60;;;;;;12657372;28;20035;-71
2023/10/29 15:56:15;;;;;;;9.73;3.95;;;16.60;89.70;;;;;;12658095;28;20035;-71
2023/10/29 16:02:16;;;;;;;6.47;3.38;;;16.60;89.70;;;;;;12657902;28;20365;-71
2023/10/29 16:08:18;;;;;;;7.20;3.08;;;16.60;89.60;;;;;;12657730;28;20106;-71
2023/10/29 16:14:20;;;;;;;6.05;3.22;;;16.50;89.60;;;;;;12657204;28;20039;-71
2023/10/29 16:20:22;;;;;;;14.02;4.10;;;16.50;89.60;;;;;;12655934;28;20040;-72
2023/10/29 16:26:24;;;;;;;4.72;3.10;;;16.50;89.60;;;;;;12656673;28;20469;-72
2023/10/29 16:32:25;;;;;;;5.30;3.60;;;16.50;89.60;;;;;;12656429;28;20047;-72
2023/10/29 16:38:27;;;;;;;7.55;4.78;;;16.50;89.60;;;;;;12656604;28;20456;-72
2023/10/29 16:44:30;;;;;;;8.40;5.90;;;16.50;89.60;;;;;;12637951;28;20071;-70
2023/10/29 16:50:38;;;;;;;6.63;4.53;;;16.40;89.60;;;;;;12637737;28;20065;-70
2023/10/29 16:56:40;;;;;;;6.33;4.50;;;16.40;89.60;;;;;;12655321;28;20032;-70
2023/10/29 17:02:42;;;;;;;8.70;5.32;;;16.40;89.60;;;;;;12655091;28;20028;-70
2023/10/29 17:08:44;;;;;;;7.72;4.75;;;16.40;89.60;;;;;;12655467;28;20032;-70
2023/10/29 17:14:47;;;;;;;8.27;4.28;;;16.40;89.60;;;;;;12654069;28;20035;-70
2023/10/29 17:20:51;;;;;;;6.63;4.70;;;16.40;89.60;;;;;;12654425;28;20024;-70
2023/10/29 17:26:53;;;;;;;8.18;5.32;;;16.30;89.60;;;;;;12653699;28;20032;-70
2023/10/29 17:32:57;;;;;;;7.57;5.22;;;16.40;89.60;;;;;;12654161;28;20039;-70
2023/10/29 17:38:59;;;;;;;7.53;5.22;;;16.30;89.60;;;;;;12709003;22;20360;-70
2023/10/29 17:45:01;;;;;;;11.80;5.10;;;16.30;89.60;;;;;;12686246;28;20042;-70
2023/10/29 17:51:04;;;;;;;11.73;8.00;;;16.30;89.60;;;;;;12670109;28;20043;-70
2023/10/29 17:57:06;;;;;;;6.65;4.82;;;16.20;89.60;;;;;;12689190;28;20047;-70
2023/10/29 18:03:08;;;;;;;13.68;6.45;;;16.30;89.60;;;;;;12696014;28;20050;-70
2023/10/29 18:09:11;;;;;;;10.23;5.65;;;16.30;89.60;;;;;;12697148;28;20053;-70
2023/10/29 18:15:13;;;;;;;10.15;6.55;;;16.30;89.50;;;;;;12713531;28;20035;-70
2023/10/29 18:21:15;;;;;;;8.30;5.75;;;16.30;89.50;;;;;;12695439;28;20036;-70
2023/10/29 18:27:17;;;;;;;11.65;5.97;;;16.20;89.50;;;;;;12713527;28;20027;-70
2023/10/29 18:33:20;;;;;;;10.00;7.75;;;16.20;89.50;;;;;;12694968;28;20047;-70
2023/10/29 18:39:22;;;;;;;9.80;6.30;;;16.20;89.50;;;;;;12712261;28;20027;-70
2023/10/29 18:45:24;;;;;;;10.32;5.97;;;16.20;89.50;;;;;;12712111;28;20027;-70
2023/10/29 18:51:26;;;;;;;9.82;6.68;;;16.20;89.40;;;;;;12693753;28;20347;-70
2023/10/29 18:57:28;;;;;;;14.13;7.68;;;16.10;89.50;;;;;;12711449;28;20028;-70
2023/10/29 19:03:30;;;;;;;7.85;6.28;;;16.10;89.50;;;;;;12693375;28;20113;-70
2023/10/29 19:09:33;;;;;;;10.80;8.23;;;16.10;89.50;;;;;;12711339;28;20039;-70
2023/10/29 19:15:35;;;;;;;14.02;8.95;;;16.00;89.50;;;;;;12692331;27;20043;-70
2023/10/29 19:21:37;;;;;;;12.18;9.45;;;16.00;89.50;;;;;;12654388;28;20032;-69
2023/10/29 19:27:39;;;;;;;10.77;7.85;;;16.00;89.50;;;;;;12636250;28;20028;-70
2023/10/29 19:33:41;;;;;;;10.55;7.78;;;15.90;89.40;;;;;;12636873;28;20040;-70
2023/10/29 19:39:43;;;;;;;13.15;7.45;;;15.90;89.50;;;;;;12677151;27;20031;-70
2023/10/29 19:45:53;;;;;;;10.20;6.25;;;16.00;89.50;;;;;;12691067;28;20039;-70
2023/10/29 19:51:55;;;;;;;14.73;7.65;;;16.00;89.40;;;;;;12692436;28;20062;-70
2023/10/29 19:57:57;;;;;;;8.27;6.78;;;15.90;89.40;;;;;;12709355;28;20035;-70
2023/10/29 20:04:01;;;;;;;10.48;6.53;;;15.90;89.40;;;;;;12674395;28;20035;-70
2023/10/29 20:10:08;;;;;;;12.13;7.88;;;15.80;89.40;;;;;;12689898;28;20051;-70
2023/10/29 20:16:09;;;;;;;10.35;7.82;;;15.80;89.40;;;;;;12707990;28;20038;-72
2023/10/29 20:22:12;;;;;;;13.23;9.02;;;15.80;89.30;;;;;;12706700;28;20101;-71
2023/10/29 20:28:14;;;;;;;16.30;8.75;;;15.70;89.30;;;;;;12689631;28;20369;-72
2023/10/29 20:34:16;;;;;;;8.77;6.95;;;15.60;89.30;;;;;;12707011;28;20039;-72
2023/10/29 20:40:18;;;;;;;9.40;7.32;;;15.50;89.30;;;;;;12706797;28;20027;-70
2023/10/29 20:46:20;;;;;;;11.88;8.07;;;15.50;89.40;;;;;;12706441;28;20038;-69
2023/10/29 20:52:22;;;;;;;12.02;8.20;;;15.50;89.30;;;;;;12688122;28;20027;-69
2023/10/29 20:58:23;;;;;;;9.93;7.18;;;15.50;89.30;;;;;;12687730;28;20034;-69
2023/10/29 21:04:25;;;;;;;12.38;8.60;;;15.50;89.40;;;;;;12687682;28;20048;-70
2023/10/29 21:10:29;;;;;;;9.05;6.38;;;15.50;89.30;;;;;;12705465;28;20039;-69
2023/10/29 21:16:31;;;;;;;9.70;7.93;;;15.40;89.40;;;;;;12670385;28;20042;-69
2023/10/29 21:22:33;;;;;;;10.95;7.70;;;15.50;89.40;;;;;;12704989;28;20032;-69
2023/10/29 21:28:34;;;;;;;10.43;7.68;;;15.50;89.40;;;;;;12705512;28;20339;-69
2023/10/29 21:34:36;;;;;;;11.82;7.47;;;15.50;89.30;;;;;;12704248;28;20058;-69
2023/10/29 21:40:38;;;;;;;9.05;6.80;;;15.50;89.20;;;;;;12686488;28;20037;-69
2023/10/29 21:46:39;;;;;;;18.35;6.82;;;15.50;89.20;;;;;;12704389;28;20028;-73
2023/10/29 21:52:42;;;;;;;9.90;7.90;;;15.60;89.20;;;;;;12686820;28;20036;-71
2023/10/29 21:58:44;;;;;;;9.35;7.65;;;15.50;89.20;;;;;;12669392;28;20035;-72
2023/10/29 22:04:45;;;;;;;9.00;7.45;;;15.50;89.20;;;;;;12704122;28;20023;-73
2023/10/29 22:11:08;;;;;;;12.77;7.95;;;15.50;89.20;;;;;;12704708;28;20504;-73
2023/10/29 22:17:13;;;;;;;11.40;8.32;;;15.50;89.20;;;;;;12703715;28;20039;-74
2023/10/29 22:23:15;;;;;;;9.50;7.10;;;15.50;89.20;;;;;;12703668;28;20443;-71
2023/10/29 22:29:16;;;;;;;12.35;8.23;;;15.40;89.10;;;;;;12685506;28;20440;-73
2023/10/29 22:35:18;;;;;;;8.27;5.78;;;15.30;89.10;;;;;;12685704;28;20035;-71
2023/10/29 22:41:20;;;;;;;10.82;8.65;;;15.30;89.10;;;;;;12703445;28;20024;-74
2023/10/29 22:47:22;;;;;;;9.73;7.30;;;15.30;89.10;;;;;;12712329;28;20032;-73
2023/10/29 22:53:24;;;;;;;9.50;7.38;;;15.30;89.10;;;;;;12712120;28;20039;-74
2023/10/29 22:59:26;;;;;;;13.80;9.73;;;15.20;89.10;;;;;;12711727;28;20027;-73
2023/10/29 23:05:32;;;;;;;8.90;7.15;;;15.20;89.10;;;;;;12711398;28;20046;-73
2023/10/29 23:11:33;;;;;;;9.25;7.38;;;15.30;89.00;;;;;;12676991;28;20332;-73
2023/10/29 23:17:35;;;;;;;8.43;6.88;;;15.20;89.00;;;;;;12710777;28;20031;-73
2023/10/29 23:23:37;;;;;;;9.68;8.10;;;15.00;89.10;;;;;;12692395;28;20024;-73
2023/10/29 23:29:39;;;;;;;9.00;7.90;;;15.00;89.20;;;;;;12691912;28;20036;-73
2023/10/29 23:35:40;;;;;;;9.32;6.63;;;15.00;89.20;;;;;;12709835;28;20034;-73
2023/10/29 23:41:42;;;;;;;14.95;6.45;;;15.10;89.10;;;;;;12709808;28;20031;-73
2023/10/29 23:47:44;;;;;;;9.88;7.43;;;15.10;89.10;;;;;;12708447;28;20052;-73
2023/10/29 23:53:45;;;;;;;8.30;6.97;;;15.10;89.10;;;;;;12707993;28;20453;-73
2023/10/29 23:59:47;;;;;;;10.60;7.72;;;15.10;89.00;;;;;;12708876;28;20367;-73
